Time;durP1;ratioP1;P1;durP2;ratioP2;P2;SDS_P1;SDS_P2;PMS_P1;PMS_P2;Temp;Humidity;BMP_temperature;BMP_pressure;BME280_temperature;BME280_humidity;BME280_pressure;Samples;Min_cycle;Max_cycle;Signal;HPM_P1;HPM_P2
2021/06/13 00:01:24;;;;;;;;;4.50;4.25;;;;;21.03;55.42;102246.50;4977298;28;45545;-80
2021/06/13 00:03:50;;;;;;;;;4.50;4.50;;;;;20.99;55.36;102249.50;4976528;28;45882;-81
2021/06/13 00:06:15;;;;;;;;;6.25;5.25;;;;;20.99;55.85;102250.34;4976540;28;45563;-81
2021/06/13 00:08:41;;;;;;;;;6.25;5.75;;;;;20.94;55.66;102243.59;4976994;28;45486;-82
2021/06/13 00:11:08;;;;;;;;;6.50;5.75;;;;;20.93;55.34;102244.50;4975608;28;46281;-83
2021/06/13 00:13:33;;;;;;;;;6.00;4.00;;;;;20.90;55.35;102247.41;4975962;28;45478;-81
2021/06/13 00:15:59;;;;;;;;;5.75;4.75;;;;;20.83;55.72;102238.91;4976646;28;45459;-80
2021/06/13 00:18:24;;;;;;;;;4.75;4.75;;;;;20.80;56.20;102245.28;4974752;28;45564;-82
2021/06/13 00:20:51;;;;;;;;;6.00;6.00;;;;;20.81;55.66;102244.31;4973967;28;46209;-81
2021/06/13 00:23:17;;;;;;;;;9.75;8.50;;;;;20.77;56.04;102236.59;4974622;28;45407;-81
2021/06/13 00:25:43;;;;;;;;;7.00;6.25;;;;;20.70;56.36;102236.13;4975803;28;45387;-80
2021/06/13 00:28:09;;;;;;;;;6.50;5.00;;;;;20.68;56.59;102231.84;4974080;28;45527;-81
2021/06/13 00:30:35;;;;;;;;;4.50;4.50;;;;;20.66;56.37;102231.06;4973634;28;45506;-80
2021/06/13 00:33:00;;;;;;;;;10.00;5.50;;;;;20.66;56.60;102231.91;4973328;28;45402;-81
2021/06/13 00:35:26;;;;;;;;;8.75;6.00;;;;;20.65;56.68;102232.03;4972657;28;45450;-81
2021/06/13 00:37:51;;;;;;;;;5.50;5.50;;;;;20.59;56.94;102231.44;4975633;28;45297;-80
2021/06/13 00:40:19;;;;;;;;;6.25;6.00;;;;;20.58;56.79;102228.88;4974754;28;45542;-81
2021/06/13 00:42:45;;;;;;;;;8.25;5.75;;;;;20.54;57.16;102224.66;4973696;28;45470;-81
2021/06/13 00:45:12;;;;;;;;;6.00;6.00;;;;;20.52;57.15;102232.78;4973371;28;45579;-80
2021/06/13 00:47:38;;;;;;;;;5.25;5.00;;;;;20.48;56.52;102225.91;4972832;28;46094;-81
2021/06/13 00:50:15;;;;;;;;;5.75;5.75;;;;;20.47;57.58;102229.53;4973746;28;45850;-81
2021/06/13 00:52:41;;;;;;;;;7.25;5.75;;;;;20.40;57.82;102233.47;4975992;28;45794;-81
2021/06/13 00:55:08;;;;;;;;;5.00;4.00;;;;;20.40;57.91;102241.50;4974035;28;45343;-81
2021/06/13 00:57:33;;;;;;;;;7.75;5.75;;;;;20.36;57.87;102236.41;4973433;28;45653;-81
2021/06/13 00:59:59;;;;;;;;;6.75;5.75;;;;;20.27;57.52;102225.34;4972552;28;46425;-81
2021/06/13 01:02:24;;;;;;;;;7.00;5.50;;;;;20.30;57.99;102237.66;4973169;28;45572;-81
2021/06/13 01:04:50;;;;;;;;;7.00;7.00;;;;;20.28;58.14;102235.09;4974534;28;45403;-79
2021/06/13 01:07:53;;;;;;;;;8.50;6.00;;;;;20.28;58.21;102231.56;4973156;28;45423;-80
2021/06/13 01:10:24;;;;;;;;;5.00;5.00;;;;;20.23;58.15;102233.63;4973393;28;45474;-82
2021/06/13 01:13:08;;;;;;;;;8.50;7.75;;;;;20.19;58.09;102234.78;4972948;28;45781;-79
2021/06/13 01:15:40;;;;;;;;;14.00;7.50;;;;;20.14;58.31;102232.38;4970404;28;45487;-78
2021/06/13 01:18:12;;;;;;;;;8.50;6.75;;;;;20.12;58.06;102238.75;4969858;28;45549;-78
2021/06/13 01:20:43;;;;;;;;;5.50;5.50;;;;;20.08;58.33;102240.75;4987099;28;47865;-79
2021/06/13 01:23:24;;;;;;;;;8.75;8.75;;;;;20.07;58.62;102245.22;4973947;28;45440;-78
2021/06/13 01:26:31;;;;;;;;;4.75;4.50;;;;;20.04;58.73;102234.72;4989749;28;45442;-78
2021/06/13 01:29:10;;;;;;;;;6.75;6.75;;;;;20.01;58.71;102236.72;4969004;28;45374;-78
2021/06/13 01:31:48;;;;;;;;;6.50;6.00;;;;;19.99;58.73;102236.84;4972144;28;45479;-77
2021/06/13 01:34:19;;;;;;;;;7.25;6.00;;;;;19.95;58.82;102237.09;4971415;28;45402;-79
2021/06/13 01:36:46;;;;;;;;;10.50;6.75;;;;;19.95;58.96;102253.09;4972621;28;45428;-78
2021/06/13 01:39:27;;;;;;;;;7.25;5.50;;;;;19.93;59.00;102247.84;4971671;28;45628;-78
2021/06/13 01:41:56;;;;;;;;;10.50;9.00;;;;;19.92;58.99;102246.13;4971806;28;46236;-79
2021/06/13 01:44:22;;;;;;;;;10.00;8.25;;;;;19.90;59.00;102241.84;4973927;28;45428;-78
2021/06/13 01:46:51;;;;;;;;;6.50;6.00;;;;;19.93;59.20;102249.66;4977852;28;45434;-79
2021/06/13 01:49:20;;;;;;;;;8.50;8.00;;;;;19.92;58.90;102254.13;4978639;28;45481;-79
2021/06/13 01:51:46;;;;;;;;;8.00;6.00;;;;;19.90;59.14;102256.03;4978619;28;46488;-79
2021/06/13 01:54:13;;;;;;;;;9.00;7.50;;;;;19.88;59.34;102252.59;4978099;28;45482;-78
2021/06/13 01:56:47;;;;;;;;;10.25;8.75;;;;;19.84;59.31;102251.06;4978975;28;45393;-79
2021/06/13 01:59:15;;;;;;;;;9.25;7.00;;;;;19.82;59.17;102252.94;4978347;28;45360;-79
2021/06/13 02:01:42;;;;;;;;;10.25;7.25;;;;;19.77;59.30;102253.19;4979323;28;46824;-78
2021/06/13 02:04:09;;;;;;;;;8.25;8.00;;;;;19.75;59.61;102251.59;4977758;28;45380;-79
2021/06/13 02:06:38;;;;;;;;;7.75;7.75;;;;;19.71;59.33;102258.91;4979779;28;45404;-79
2021/06/13 02:09:06;;;;;;;;;7.75;7.50;;;;;19.68;59.70;102260.88;4979549;28;45399;-78
2021/06/13 02:11:33;;;;;;;;;10.25;8.00;;;;;19.60;60.07;102252.47;4979635;28;45715;-78
2021/06/13 02:14:00;;;;;;;;;8.50;6.75;;;;;19.61;60.21;102267.50;4980876;28;45356;-78
2021/06/13 02:16:26;;;;;;;;;9.50;7.75;;;;;19.58;59.69;102268.53;4979011;28;45441;-78
2021/06/13 02:18:54;;;;;;;;;8.00;8.00;;;;;19.53;60.06;102275.91;4978936;28;45507;-79
2021/06/13 02:21:20;;;;;;;;;9.75;8.75;;;;;19.45;59.95;102268.34;4979363;28;45569;-78
2021/06/13 02:23:45;;;;;;;;;9.75;8.75;;;;;19.45;60.04;102286.16;4979622;28;45474;-79
2021/06/13 02:26:13;;;;;;;;;10.00;9.00;;;;;19.43;60.42;102283.56;4979854;28;45345;-78
2021/06/13 02:28:43;;;;;;;;;10.25;8.50;;;;;19.41;59.83;102279.25;4980644;28;45452;-78
2021/06/13 02:31:10;;;;;;;;;10.75;9.00;;;;;19.32;60.11;102269.13;4979979;28;46525;-79
2021/06/13 02:33:44;;;;;;;;;8.25;8.25;;;;;19.30;60.25;102280.69;4977128;28;45474;-78
2021/06/13 02:36:10;;;;;;;;;9.75;8.50;;;;;19.29;60.56;102280.81;4977507;28;45530;-78
2021/06/13 02:38:36;;;;;;;;;8.25;6.75;;;;;19.23;60.34;102281.13;4979492;28;45441;-77
2021/06/13 02:41:01;;;;;;;;;9.00;8.50;;;;;19.19;60.28;102280.44;4979756;28;46364;-78
2021/06/13 02:43:27;;;;;;;;;9.75;8.25;;;;;19.16;60.51;102274.41;4979195;28;45658;-78
2021/06/13 02:45:52;;;;;;;;;9.50;9.50;;;;;19.16;60.68;102279.72;4977827;28;45597;-78
2021/06/13 02:48:18;;;;;;;;;9.00;7.50;;;;;19.10;60.85;102282.75;4977934;28;45489;-78
2021/06/13 02:50:44;;;;;;;;;11.00;7.50;;;;;19.09;60.89;102278.34;4978366;28;45642;-77
2021/06/13 02:53:19;;;;;;;;;11.00;8.75;;;;;19.09;60.46;102291.69;4979125;28;45537;-78
2021/06/13 02:55:59;;;;;;;;;8.50;8.25;;;;;19.05;60.74;102290.97;4977180;28;45512;-79
2021/06/13 02:58:43;;;;;;;;;9.00;8.25;;;;;19.04;60.78;102297.25;4974366;28;45336;-78
2021/06/13 03:01:11;;;;;;;;;11.00;9.00;;;;;18.99;61.09;102296.63;4974478;28;46740;-78
2021/06/13 03:03:38;;;;;;;;;8.25;7.75;;;;;19.01;60.93;102305.44;4975622;28;45746;-78
2021/06/13 03:06:10;;;;;;;;;8.00;7.00;;;;;18.98;61.04;102306.44;4975469;28;45513;-77
2021/06/13 03:08:37;;;;;;;;;11.75;8.75;;;;;18.97;61.10;102303.88;4975794;28;45422;-79
2021/06/13 03:11:04;;;;;;;;;10.00;9.00;;;;;18.94;60.72;102314.69;4976299;28;45648;-78
2021/06/13 03:13:30;;;;;;;;;8.25;7.25;;;;;18.89;61.43;102303.41;4975623;28;45747;-78
2021/06/13 03:15:57;;;;;;;;;8.25;8.25;;;;;18.89;61.39;102312.25;4972574;28;45432;-77
2021/06/13 03:18:25;;;;;;;;;9.75;8.75;;;;;18.89;61.27;102317.56;4967514;28;45524;-78
2021/06/13 03:20:51;;;;;;;;;10.75;9.25;;;;;18.81;61.22;102303.81;4973901;28;45498;-78
2021/06/13 03:23:17;;;;;;;;;7.75;7.75;;;;;18.84;61.63;102319.63;4975355;28;45439;-78
2021/06/13 03:25:43;;;;;;;;;8.00;8.00;;;;;18.86;61.40;102323.09;4977135;28;45502;-78
2021/06/13 03:28:09;;;;;;;;;9.00;7.50;;;;;18.86;61.01;102325.75;4974955;28;45471;-78
2021/06/13 03:30:35;;;;;;;;;7.75;7.75;;;;;18.84;61.38;102324.09;4976249;28;46150;-78
2021/06/13 03:33:03;;;;;;;;;12.75;9.00;;;;;18.84;61.28;102318.75;4975219;28;45352;-77
2021/06/13 03:35:29;;;;;;;;;8.00;8.00;;;;;18.83;61.36;102325.91;4975462;28;45244;-78
2021/06/13 03:37:55;;;;;;;;;9.75;9.75;;;;;18.80;60.99;102319.88;4976502;28;45614;-78
2021/06/13 03:40:23;;;;;;;;;8.75;8.75;;;;;18.78;61.16;102319.94;4974904;28;46459;-78
2021/06/13 03:42:49;;;;;;;;;9.25;8.25;;;;;18.78;61.38;102326.13;4974975;28;45755;-79
2021/06/13 03:45:15;;;;;;;;;10.50;9.75;;;;;18.77;61.13;102323.56;4974734;28;45484;-78
2021/06/13 03:47:42;;;;;;;;;8.25;8.00;;;;;18.76;61.63;102322.69;4973683;28;46002;-79
2021/06/13 03:50:10;;;;;;;;;10.75;9.00;;;;;18.75;61.30;102321.00;4975333;28;46264;-79
2021/06/13 03:52:35;;;;;;;;;12.50;9.25;;;;;18.72;61.41;102325.59;4977281;28;45808;-78
2021/06/13 03:55:02;;;;;;;;;13.50;12.75;;;;;18.70;61.33;102317.69;4975010;28;45450;-78
2021/06/13 03:57:29;;;;;;;;;9.75;8.00;;;;;18.68;61.22;102324.03;4974427;28;45606;-79
2021/06/13 03:59:57;;;;;;;;;13.00;9.50;;;;;18.70;61.86;102328.34;4975863;28;45514;-79
2021/06/13 04:02:24;;;;;;;;;12.50;10.00;;;;;18.68;61.82;102316.91;4974973;28;45393;-78
2021/06/13 04:04:53;;;;;;;;;12.25;8.25;;;;;18.68;61.91;102335.53;4976698;28;45455;-79
2021/06/13 04:07:19;;;;;;;;;11.75;9.25;;;;;18.65;61.21;102335.69;4973314;28;45482;-79
2021/06/13 04:09:46;;;;;;;;;10.50;9.00;;;;;18.62;61.73;102330.50;4974065;28;46360;-78
2021/06/13 04:12:17;;;;;;;;;8.75;8.75;;;;;18.64;61.77;102338.44;4974459;28;45312;-78
2021/06/13 04:14:44;;;;;;;;;14.00;10.00;;;;;18.61;61.76;102344.75;4973674;28;45330;-79
2021/06/13 04:17:13;;;;;;;;;14.25;11.75;;;;;18.61;61.38;102341.25;4975922;28;45487;-79
2021/06/13 04:19:39;;;;;;;;;13.00;11.00;;;;;18.58;61.39;102336.91;4973714;28;45680;-78
2021/06/13 04:22:05;;;;;;;;;11.50;9.50;;;;;18.63;61.25;102352.66;4973149;28;45441;-78
2021/06/13 04:24:32;;;;;;;;;10.00;10.00;;;;;18.58;61.17;102350.22;4974711;28;45418;-78
2021/06/13 04:26:59;;;;;;;;;7.00;7.00;;;;;18.59;61.35;102348.47;4974246;28;45936;-77
2021/06/13 04:29:24;;;;;;;;;10.50;8.50;;;;;18.61;61.17;102360.75;4975657;28;45404;-78
2021/06/13 04:31:50;;;;;;;;;11.00;10.50;;;;;18.61;61.33;102358.06;4976665;28;45413;-78
2021/06/13 04:34:15;;;;;;;;;13.00;10.00;;;;;18.58;61.40;102360.03;4973147;28;45482;-78
2021/06/13 04:36:41;;;;;;;;;9.00;9.00;;;;;18.59;61.08;102364.44;4974052;28;45676;-78
2021/06/13 04:39:06;;;;;;;;;11.25;10.50;;;;;18.58;60.82;102357.34;4973238;28;46098;-77
2021/06/13 04:41:34;;;;;;;;;9.00;9.00;;;;;18.60;61.37;102367.00;4974965;28;45544;-78
2021/06/13 04:44:00;;;;;;;;;11.50;10.00;;;;;18.58;60.84;102357.34;4975719;28;45408;-77
2021/06/13 04:46:28;;;;;;;;;14.50;11.00;;;;;18.59;61.05;102359.09;4974119;28;45545;-77
2021/06/13 04:48:53;;;;;;;;;11.75;10.00;;;;;18.59;60.92;102359.09;4988293;28;47788;-78
2021/06/13 04:51:20;;;;;;;;;12.50;11.75;;;;;18.63;61.01;102366.84;4987511;28;45427;-79
2021/06/13 04:53:53;;;;;;;;;9.25;9.25;;;;;18.66;61.25;102372.03;4974697;28;45298;-78
2021/06/13 04:56:35;;;;;;;;;8.75;8.75;;;;;18.70;61.32;102368.31;4974231;28;45446;-78
2021/06/13 04:59:01;;;;;;;;;12.00;10.00;;;;;18.74;60.66;102376.97;4975216;28;47241;-78
2021/06/13 05:01:27;;;;;;;;;12.00;10.00;;;;;18.76;60.71;102375.97;4975043;28;45893;-79
2021/06/13 05:03:53;;;;;;;;;11.25;9.25;;;;;18.82;60.40;102374.78;4973898;28;45540;-79
2021/06/13 05:06:21;;;;;;;;;11.00;9.25;;;;;18.85;60.55;102369.31;4974831;28;45438;-78
2021/06/13 05:08:46;;;;;;;;;12.25;10.00;;;;;18.92;60.40;102373.38;4973591;28;46559;-78
2021/06/13 05:11:12;;;;;;;;;15.75;10.00;;;;;18.96;60.08;102369.63;4973430;28;45545;-78
2021/06/13 05:13:38;;;;;;;;;14.50;9.50;;;;;19.00;60.23;102376.50;4988331;28;45337;-78
2021/06/13 05:16:05;;;;;;;;;10.50;8.00;;;;;19.00;59.99;102378.28;4973579;28;45398;-78
2021/06/13 05:18:30;;;;;;;;;10.75;9.00;;;;;19.02;60.32;102376.44;4973562;28;46856;-78
2021/06/13 05:20:56;;;;;;;;;8.75;8.00;;;;;19.09;60.01;102385.81;4974116;28;45529;-78
2021/06/13 05:23:22;;;;;;;;;9.75;8.75;;;;;19.10;59.97;102386.66;4974093;28;45441;-79
2021/06/13 05:25:49;;;;;;;;;11.75;10.00;;;;;19.12;59.89;102383.00;4974172;28;45510;-78
2021/06/13 05:28:15;;;;;;;;;14.75;11.50;;;;;19.19;59.13;102399.50;4973645;28;45414;-77
2021/06/13 05:30:41;;;;;;;;;15.25;10.00;;;;;19.23;59.67;102401.09;4973899;28;45300;-78
2021/06/13 05:33:06;;;;;;;;;10.75;10.75;;;;;19.26;59.29;102398.25;4973617;28;45349;-78
2021/06/13 05:35:33;;;;;;;;;9.00;8.25;;;;;19.35;59.19;102405.75;4973261;28;45398;-79
2021/06/13 05:37:59;;;;;;;;;8.75;8.75;;;;;19.42;58.72;102391.16;4974739;28;46697;-77
2021/06/13 05:40:25;;;;;;;;;10.00;7.50;;;;;19.56;58.36;102401.06;4973141;28;45456;-79
2021/06/13 05:42:53;;;;;;;;;9.00;8.00;;;;;19.74;57.96;102404.59;4973729;28;45408;-78
2021/06/13 05:45:22;;;;;;;;;9.75;9.75;;;;;20.29;58.06;102404.13;4973997;28;45494;-79
2021/06/13 05:47:47;;;;;;;;;11.50;8.00;;;;;21.41;56.33;102398.38;4971529;28;48471;-77
2021/06/13 05:50:13;;;;;;;;;13.00;9.25;;;;;22.77;54.84;102396.69;4973190;28;45397;-78
2021/06/13 05:52:39;;;;;;;;;7.75;7.75;;;;;24.14;52.06;102407.53;4975099;28;45496;-78
2021/06/13 05:55:06;;;;;;;;;7.00;7.00;;;;;25.31;50.82;102403.09;4972334;28;45436;-79
2021/06/13 05:57:32;;;;;;;;;7.00;6.75;;;;;26.16;48.09;102391.78;4973147;28;45524;-79
2021/06/13 05:59:59;;;;;;;;;8.00;7.25;;;;;26.27;46.99;102392.59;4973324;28;45443;-79
2021/06/13 06:02:25;;;;;;;;;7.25;7.00;;;;;25.97;46.94;102395.97;4973341;28;45394;-78
2021/06/13 06:04:50;;;;;;;;;8.50;7.75;;;;;25.69;46.82;102408.13;4974603;28;45273;-79
2021/06/13 06:07:16;;;;;;;;;11.00;8.25;;;;;25.35;47.40;102415.31;4972665;28;46739;-79
2021/06/13 06:09:41;;;;;;;;;7.25;6.75;;;;;24.99;46.92;102409.13;4972802;28;45479;-79
2021/06/13 06:12:07;;;;;;;;;7.00;6.00;;;;;24.69;47.03;102416.84;4973238;28;50128;-79
2021/06/13 06:14:32;;;;;;;;;5.50;5.50;;;;;24.53;46.88;102417.16;4972252;28;45408;-79
2021/06/13 06:16:57;;;;;;;;;7.50;7.00;;;;;24.20;47.65;102418.69;4974453;28;46328;-77
2021/06/13 06:19:23;;;;;;;;;6.00;6.00;;;;;23.79;48.15;102421.72;4973641;28;48193;-78
2021/06/13 06:21:48;;;;;;;;;6.75;4.50;;;;;23.41;47.74;102424.44;4972590;28;45576;-79
2021/06/13 06:24:13;;;;;;;;;8.00;7.00;;;;;23.05;47.71;102420.66;4971627;28;45408;-78
2021/06/13 06:26:39;;;;;;;;;7.00;7.00;;;;;22.70;48.48;102411.44;4973165;28;45343;-79
2021/06/13 06:29:04;;;;;;;;;6.75;6.00;;;;;22.50;48.47;102419.03;4974556;28;45375;-79
2021/06/13 06:31:29;;;;;;;;;8.25;6.00;;;;;22.28;49.14;102424.06;4974853;28;45509;-79
2021/06/13 06:33:55;;;;;;;;;6.25;6.25;;;;;22.14;48.75;102438.38;4976567;28;45343;-80
2021/06/13 06:36:20;;;;;;;;;9.50;7.00;;;;;21.99;49.04;102434.84;4975818;28;46455;-78
2021/06/13 06:38:46;;;;;;;;;8.00;7.00;;;;;21.90;49.05;102435.41;4976456;28;45678;-78
2021/06/13 06:41:11;;;;;;;;;9.50;6.00;;;;;21.82;49.76;102427.88;4977354;28;45611;-78
2021/06/13 06:43:36;;;;;;;;;6.75;6.25;;;;;21.78;49.43;102426.34;4977604;28;46089;-78
2021/06/13 06:46:02;;;;;;;;;10.25;6.00;;;;;21.72;49.13;102434.78;4975883;28;46462;-77
2021/06/13 06:48:27;;;;;;;;;8.00;7.25;;;;;21.66;49.32;102437.81;4988710;28;45792;-81
2021/06/13 06:50:52;;;;;;;;;8.50;6.00;;;;;21.55;49.91;102432.28;4975821;28;45917;-79
2021/06/13 06:53:18;;;;;;;;;8.50;7.00;;;;;21.60;49.81;102438.19;4975988;28;45399;-78
2021/06/13 06:55:43;;;;;;;;;7.00;5.00;;;;;21.62;49.78;102431.81;4977672;28;46397;-79
2021/06/13 06:58:08;;;;;;;;;6.00;5.25;;;;;21.67;50.04;102436.88;4976161;28;45348;-79
2021/06/13 07:00:34;;;;;;;;;7.25;5.50;;;;;21.66;49.29;102431.59;4976693;28;45504;-79
2021/06/13 07:02:59;;;;;;;;;6.50;6.50;;;;;21.70;49.20;102433.13;4976422;28;45589;-78
2021/06/13 07:05:24;;;;;;;;;5.75;5.75;;;;;21.71;49.25;102432.19;4975803;28;45430;-78
2021/06/13 07:07:50;;;;;;;;;6.00;5.25;;;;;21.73;48.74;102439.16;4977004;28;45610;-79
2021/06/13 07:10:15;;;;;;;;;6.00;5.00;;;;;21.73;48.13;102438.31;4976759;28;45329;-78
2021/06/13 07:12:42;;;;;;;;;8.00;6.00;;;;;21.76;47.42;102432.75;4976493;28;45525;-77
2021/06/13 07:15:08;;;;;;;;;4.25;4.00;;;;;21.72;48.06;102442.81;4976094;28;45392;-80
2021/06/13 07:17:37;;;;;;;;;8.75;6.00;;;;;21.75;48.10;102431.88;4976476;28;45443;-76
2021/06/13 07:20:04;;;;;;;;;7.25;7.25;;;;;21.82;47.44;102437.69;4975495;28;45391;-77
2021/06/13 07:22:30;;;;;;;;;5.00;5.00;;;;;21.89;47.75;102441.72;4991718;28;45361;-77
2021/06/13 07:24:57;;;;;;;;;6.50;5.25;;;;;21.98;47.56;102438.47;4976363;28;45562;-77
2021/06/13 07:27:23;;;;;;;;;7.00;5.00;;;;;22.04;47.11;102445.25;4976114;28;45608;-78
2021/06/13 07:29:49;;;;;;;;;7.50;5.00;;;;;22.06;47.44;102438.81;4976438;28;45432;-76
2021/06/13 07:32:16;;;;;;;;;9.00;7.00;;;;;22.11;47.59;102450.13;4977117;28;45347;-77
2021/06/13 07:34:42;;;;;;;;;3.50;3.50;;;;;22.16;47.22;102446.31;4976594;28;46034;-77
2021/06/13 07:37:07;;;;;;;;;6.25;6.25;;;;;22.25;46.91;102451.06;4975046;28;45513;-77
2021/06/13 07:39:33;;;;;;;;;5.25;5.25;;;;;22.35;46.95;102447.69;4975909;28;45403;-77
2021/06/13 07:41:59;;;;;;;;;6.00;5.00;;;;;22.48;46.76;102452.22;4975405;28;45605;-79
2021/06/13 07:44:27;;;;;;;;;5.50;4.75;;;;;22.59;47.00;102447.88;4975923;28;45458;-78
2021/06/13 07:46:53;;;;;;;;;7.50;5.75;;;;;22.76;46.55;102440.50;4976501;28;45478;-78
2021/06/13 07:49:19;;;;;;;;;6.25;5.75;;;;;22.81;45.79;102441.94;4974662;28;45551;-78
2021/06/13 07:51:44;;;;;;;;;6.25;5.25;;;;;22.87;46.20;102443.34;4975037;28;45798;-79
2021/06/13 07:54:10;;;;;;;;;5.50;5.50;;;;;22.93;45.66;102432.25;4974845;28;45626;-77
2021/06/13 07:56:35;;;;;;;;;5.50;5.50;;;;;23.05;45.25;102438.56;4975187;28;45439;-78
2021/06/13 07:59:00;;;;;;;;;6.00;4.75;;;;;23.11;45.45;102441.69;4975584;28;45591;-79
2021/06/13 08:01:26;;;;;;;;;6.00;6.00;;;;;23.17;44.91;102432.34;4976131;28;45541;-77
2021/06/13 08:03:51;;;;;;;;;7.00;6.25;;;;;23.23;44.98;102436.44;4974440;28;46304;-78
2021/06/13 08:06:17;;;;;;;;;5.00;5.00;;;;;23.31;44.87;102434.09;4973519;28;45514;-78
2021/06/13 08:08:43;;;;;;;;;4.00;4.00;;;;;23.40;44.83;102428.09;4978014;28;45648;-78
2021/06/13 08:11:09;;;;;;;;;6.00;4.50;;;;;23.56;44.65;102430.53;4974980;28;45473;-78
2021/06/13 08:13:34;;;;;;;;;7.00;5.00;;;;;23.69;44.32;102434.94;4975589;28;46058;-78
2021/06/13 08:16:00;;;;;;;;;6.75;4.75;;;;;23.80;44.58;102436.00;4974029;28;45360;-80
2021/06/13 08:18:26;;;;;;;;;4.50;3.50;;;;;23.96;44.17;102431.22;4974795;28;45380;-77
2021/06/13 08:20:52;;;;;;;;;4.75;3.25;;;;;24.18;43.53;102441.28;4972002;28;45391;-76
2021/06/13 08:23:17;;;;;;;;;4.75;4.75;;;;;24.33;43.00;102440.16;4972708;28;45468;-77
2021/06/13 08:25:43;;;;;;;;;6.50;4.25;;;;;24.47;43.24;102437.28;4971830;28;49534;-77
2021/06/13 08:28:08;;;;;;;;;3.00;3.00;;;;;24.68;42.46;102437.50;4972597;28;45811;-78
2021/06/13 08:30:33;;;;;;;;;6.25;4.75;;;;;25.00;42.13;102436.88;4972548;28;45462;-78
2021/06/13 08:32:59;;;;;;;;;6.00;4.50;;;;;25.41;41.44;102440.88;4972462;28;46576;-78
2021/06/13 08:35:25;;;;;;;;;4.00;4.00;;;;;25.75;40.53;102431.03;4972100;28;45497;-77
2021/06/13 08:37:50;;;;;;;;;3.50;3.25;;;;;26.07;39.84;102435.63;4972430;28;45561;-79
2021/06/13 08:40:16;;;;;;;;;4.25;4.25;;;;;26.42;40.10;102430.06;4972370;28;45518;-77
2021/06/13 08:42:43;;;;;;;;;4.75;4.00;;;;;26.75;39.27;102424.50;4970723;28;46211;-79
2021/06/13 08:45:11;;;;;;;;;5.00;5.00;;;;;27.27;38.73;102417.34;4975164;28;48144;-78
2021/06/13 08:47:38;;;;;;;;;3.75;3.25;;;;;27.76;37.65;102421.13;4975779;28;45343;-80
2021/06/13 08:50:05;;;;;;;;;3.00;3.00;;;;;28.04;36.77;102418.66;4974883;28;45460;-79
2021/06/13 08:52:30;;;;;;;;;3.75;3.75;;;;;28.56;35.95;102417.44;4974387;28;46744;-77
2021/06/13 08:54:59;;;;;;;;;3.00;3.00;;;;;30.89;35.41;102414.44;4975960;28;45488;-75
2021/06/13 08:57:24;;;;;;;;;2.00;2.00;;;;;34.20;33.68;102407.88;4976531;28;45422;-77
2021/06/13 08:59:50;;;;;;;;;4.00;4.00;;;;;37.03;30.30;102416.44;4976671;28;45515;-78
2021/06/13 09:02:16;;;;;;;;;3.00;3.00;;;;;39.47;26.61;102417.97;4976398;28;47427;-73
2021/06/13 09:04:41;;;;;;;;;4.00;3.50;;;;;41.68;25.24;102420.41;4975151;28;45528;-75
2021/06/13 09:07:24;;;;;;;;;3.50;3.50;;;;;43.83;24.27;102426.44;4976117;28;45806;-77
2021/06/13 09:09:50;;;;;;;;;6.75;6.00;;;;;45.64;20.68;102433.44;4975970;28;46521;-75
2021/06/13 09:12:15;;;;;;;;;7.00;7.00;;;;;46.67;20.41;102424.13;4977661;28;45465;-74
2021/06/13 09:14:44;;;;;;;;;3.00;1.25;;;;;47.58;19.00;102434.91;4976636;28;45556;-74
2021/06/13 09:17:14;;;;;;;;;2.00;2.00;;;;;48.71;18.60;102419.97;4980890;28;45438;-74
2021/06/13 09:20:27;;;;;;;;;2.25;1.00;;;;;49.05;17.63;102430.47;4976352;28;45454;-77
2021/06/13 09:23:11;;;;;;;;;5.75;2.25;;;;;49.06;17.28;102423.75;4953062;28;46486;-74
2021/06/13 09:25:41;;;;;;;;;3.75;2.75;;;;;49.00;17.25;102414.56;4955786;28;45511;-75
2021/06/13 09:28:14;;;;;;;;;2.00;2.00;;;;;48.48;17.13;102414.97;4954635;28;45431;-74
2021/06/13 09:30:45;;;;;;;;;4.75;3.50;;;;;47.86;17.29;102414.06;4953649;28;46193;-76
2021/06/13 09:33:14;;;;;;;;;2.00;2.00;;;;;47.05;17.50;102423.81;4953222;28;46762;-74
2021/06/13 09:35:41;;;;;;;;;2.00;2.00;;;;;46.57;17.71;102427.66;4952379;28;45565;-75
2021/06/13 09:38:15;;;;;;;;;4.75;4.00;;;;;46.03;17.43;102433.28;4952768;28;45587;-78
2021/06/13 09:40:44;;;;;;;;;3.75;2.75;;;;;44.99;17.93;102434.25;4951384;28;45418;-75
2021/06/13 09:43:14;;;;;;;;;3.00;3.00;;;;;44.15;18.12;102423.13;4954429;28;46452;-77
2021/06/13 09:45:45;;;;;;;;;2.00;2.00;;;;;43.57;19.08;102419.53;4955372;28;45424;-76
2021/06/13 09:48:11;;;;;;;;;2.00;2.00;;;;;43.38;19.20;102415.22;4950883;28;45549;-77
2021/06/13 09:50:42;;;;;;;;;2.00;2.00;;;;;43.23;19.14;102426.84;4952756;28;45535;-76
2021/06/13 09:53:23;;;;;;;;;2.25;2.25;;;;;43.24;18.79;102417.47;4958826;28;46776;-76
2021/06/13 09:56:04;;;;;;;;;3.75;2.00;;;;;43.48;19.39;102421.84;4952095;28;45786;-76
2021/06/13 09:58:31;;;;;;;;;2.75;2.75;;;;;43.78;18.89;102423.53;4966072;28;45525;-76
2021/06/13 10:01:10;;;;;;;;;3.50;3.00;;;;;43.94;18.85;102416.41;4973489;28;45490;-76
2021/06/13 10:03:37;;;;;;;;;4.00;4.00;;;;;43.52;18.19;102418.59;4972972;28;46214;-76
2021/06/13 10:06:07;;;;;;;;;2.25;2.25;;;;;42.60;17.93;102422.03;4985182;28;45392;-76
2021/06/13 10:08:35;;;;;;;;;3.75;1.75;;;;;41.36;18.60;102417.00;4976898;28;45411;-75
2021/06/13 10:11:01;;;;;;;;;1.75;1.75;;;;;40.59;19.81;102410.13;4976770;28;45470;-76
2021/06/13 10:13:46;;;;;;;;;8.75;7.00;;;;;39.90;19.57;102407.19;4976335;28;46325;-74
2021/06/13 10:16:27;;;;;;;;;2.75;2.75;;;;;39.36;19.92;102408.50;4975618;28;45382;-76
2021/06/13 10:19:02;;;;;;;;;2.00;2.00;;;;;38.87;20.77;102409.00;4983002;28;45726;-75
2021/06/13 10:21:35;;;;;;;;;1.00;1.00;;;;;38.25;20.80;102400.06;4976676;28;45680;-77
2021/06/13 10:24:03;;;;;;;;;2.25;2.25;;;;;37.78;21.36;102410.06;4976350;28;46353;-77
2021/06/13 10:26:29;;;;;;;;;1.25;1.00;;;;;37.40;21.69;102412.47;4973041;28;45580;-75
2021/06/13 10:28:54;;;;;;;;;2.50;1.75;;;;;37.06;22.13;102397.69;4977850;28;45398;-76
2021/06/13 10:31:20;;;;;;;;;2.00;1.25;;;;;36.78;22.17;102403.16;4979135;28;45688;-77
2021/06/13 10:33:46;;;;;;;;;2.25;2.00;;;;;36.41;22.14;102412.56;4975120;28;46554;-77
2021/06/13 10:36:12;;;;;;;;;1.25;1.25;;;;;36.02;22.48;102386.47;4975611;28;45293;-77
2021/06/13 10:38:37;;;;;;;;;2.25;1.00;;;;;35.66;22.49;102388.34;4976830;28;45570;-77
2021/06/13 10:41:04;;;;;;;;;2.50;1.75;;;;;35.30;23.24;102389.94;4977835;28;45309;-76
2021/06/13 10:43:31;;;;;;;;;1.75;1.75;;;;;35.12;22.91;102391.34;4975893;28;46364;-76
2021/06/13 10:46:25;;;;;;;;;2.00;2.00;;;;;34.98;23.61;102393.91;4975466;28;45912;-76
2021/06/13 10:48:51;;;;;;;;;1.00;1.00;;;;;34.77;24.00;102388.31;4975956;28;45490;-76
2021/06/13 10:51:34;;;;;;;;;1.75;1.75;;;;;34.42;24.40;102385.16;4976256;28;45455;-76
2021/06/13 10:54:22;;;;;;;;;2.50;2.50;;;;;34.12;24.04;102375.16;4974323;28;45546;-77
2021/06/13 10:56:54;;;;;;;;;2.50;2.00;;;;;33.58;24.35;102375.97;4963351;28;45558;-76
2021/06/13 10:59:21;;;;;;;;;2.00;1.00;;;;;33.38;23.97;102372.81;4976231;28;45606;-75
2021/06/13 11:02:09;;;;;;;;;3.00;3.00;;;;;33.19;24.90;102374.06;4977706;28;45418;-76
2021/06/13 11:04:45;;;;;;;;;4.00;2.75;;;;;32.86;25.18;102373.28;4976437;28;45683;-76
2021/06/13 11:07:12;;;;;;;;;2.25;2.25;;;;;32.66;25.78;102371.94;4975719;28;45413;-76
2021/06/13 11:10:13;;;;;;;;;0.25;0.25;;;;;32.50;25.38;102372.81;4976199;28;45348;-76
2021/06/13 11:12:49;;;;;;;;;3.50;3.50;;;;;32.28;24.80;102373.44;4975728;28;46217;-76
2021/06/13 11:15:41;;;;;;;;;1.50;1.25;;;;;32.09;25.29;102372.75;4974553;28;45782;-76
2021/06/13 11:18:15;;;;;;;;;3.00;3.00;;;;;31.87;25.54;102360.63;4971753;28;45516;-76
2021/06/13 11:21:03;;;;;;;;;1.00;1.00;;;;;31.88;25.53;102367.78;4976463;28;45732;-76
2021/06/13 11:23:28;;;;;;;;;1.00;0.00;;;;;31.81;24.82;102355.88;4961670;28;45418;-75
2021/06/13 11:25:57;;;;;;;;;2.00;2.00;;;;;31.64;25.73;102359.53;4976664;28;46636;-76
2021/06/13 11:28:30;;;;;;;;;3.25;1.50;;;;;31.50;25.76;102357.44;4975460;28;45449;-76